Time;durP1;ratioP1;P1;durP2;ratioP2;P2;SDS_P1;SDS_P2;PMS_P1;PMS_P2;Temp;Humidity;BMP_temperature;BMP_pressure;BME280_temperature;BME280_humidity;BME280_pressure;Samples;Min_cycle;Max_cycle;Signal;HPM_P1;HPM_P2
2022/09/09 00:05:10;;;;;;;20.73;18.52;;;25.80;63.30;;;;;;4830289;54;21036;-27
2022/09/09 00:10:38;;;;;;;21.75;19.20;;;25.80;63.30;;;;;;4866731;54;21020;-27
2022/09/09 00:16:46;;;;;;;22.83;18.05;;;25.80;63.30;;;;;;4839683;54;21530;-27
2022/09/09 00:22:26;;;;;;;21.83;18.77;;;25.80;63.30;;;;;;4796347;54;21064;-27
2022/09/09 00:27:50;;;;;;;21.05;18.85;;;25.80;63.30;;;;;;4820180;54;21564;-26
2022/09/09 00:32:59;;;;;;;20.20;18.00;;;25.80;63.30;;;;;;4794449;58;21071;-28
2022/09/09 00:38:15;;;;;;;21.37;18.02;;;25.80;63.30;;;;;;4816848;54;21000;-30
2022/09/09 00:43:37;;;;;;;21.08;18.83;;;25.80;63.30;;;;;;4819070;54;21019;-24
2022/09/09 00:50:01;;;;;;;19.95;17.87;;;25.80;63.30;;;;;;4810332;54;21079;-28
2022/09/09 00:55:15;;;;;;;20.30;18.02;;;25.80;63.30;;;;;;4803939;54;20988;-33
2022/09/09 01:01:13;;;;;;;19.87;17.77;;;25.80;63.30;;;;;;4818789;54;21087;-34
2022/09/09 01:06:34;;;;;;;19.17;17.17;;;25.80;63.30;;;;;;4873894;54;21004;-31
2022/09/09 01:13:12;;;;;;;19.08;16.77;;;25.80;63.30;;;;;;4795402;55;21110;-31
2022/09/09 01:18:19;;;;;;;19.10;17.17;;;25.80;63.30;;;;;;4804746;54;21490;-28
2022/09/09 01:23:53;;;;;;;20.37;17.73;;;25.80;63.30;;;;;;4802971;54;21534;-26
2022/09/09 01:28:54;;;;;;;19.65;17.55;;;25.80;63.40;;;;;;4844227;54;21514;-26
2022/09/09 01:33:55;;;;;;;20.35;17.40;;;25.80;63.40;;;;;;4795427;55;21004;-32
2022/09/09 01:38:56;;;;;;;17.92;16.05;;;25.80;63.30;;;;;;4797972;54;21063;-34
2022/09/09 01:43:57;;;;;;;18.30;16.40;;;25.70;63.30;;;;;;4802198;54;20988;-25
2022/09/09 01:49:00;;;;;;;18.65;16.67;;;25.80;63.40;;;;;;4819908;54;21490;-33
2022/09/09 01:54:02;;;;;;;19.30;16.17;;;25.70;63.30;;;;;;4823126;54;21023;-26
2022/09/09 01:59:36;;;;;;;17.90;15.98;;;25.80;63.30;;;;;;4797334;54;21048;-30
2022/09/09 02:04:44;;;;;;;18.67;16.17;;;25.70;63.30;;;;;;4812733;54;21043;-26
2022/09/09 02:09:51;;;;;;;18.08;16.25;;;25.70;63.30;;;;;;4806755;54;21458;-29
2022/09/09 02:14:58;;;;;;;;;;;25.70;63.30;;;;;;4809131;54;21591;-26
2022/09/09 02:20:08;;;;;;;;;;;25.70;63.30;;;;;;4810237;54;20083;-35
2022/09/09 02:25:11;;;;;;;17.25;15.45;;;25.70;63.30;;;;;;4800348;54;20337;-28
2022/09/09 02:30:12;;;;;;;17.48;15.63;;;25.70;63.40;;;;;;4822713;54;21612;-37
2022/09/09 02:35:20;;;;;;;16.95;14.90;;;25.70;63.40;;;;;;4800285;54;20999;-31
2022/09/09 02:40:21;;;;;;;18.73;15.60;;;25.70;63.40;;;;;;4839089;54;21570;-32
2022/09/09 02:45:27;;;;;;;17.85;16.05;;;25.70;63.40;;;;;;4812297;54;21498;-26
2022/09/09 02:50:39;;;;;;;16.65;14.95;;;25.70;63.40;;;;;;4847810;54;21138;-27
2022/09/09 02:56:05;;;;;;;18.87;15.70;;;25.70;63.50;;;;;;4802736;54;21066;-29
2022/09/09 03:01:06;;;;;;;16.55;14.85;;;25.70;63.50;;;;;;4803930;54;21055;-26
2022/09/09 03:06:07;;;;;;;17.25;15.32;;;25.70;63.50;;;;;;4824108;54;21538;-29
2022/09/09 03:11:09;;;;;;;15.50;13.90;;;25.70;63.50;;;;;;4808433;54;21043;-29
2022/09/09 03:16:10;;;;;;;17.17;15.13;;;25.70;63.50;;;;;;4797120;54;21043;-28
2022/09/09 03:21:10;;;;;;;17.00;14.40;;;25.70;63.60;;;;;;4796966;54;21589;-30
2022/09/09 03:26:12;;;;;;;19.02;15.32;;;25.70;63.60;;;;;;4798060;54;21465;-27
2022/09/09 03:31:13;;;;;;;16.65;14.87;;;25.70;63.70;;;;;;4794494;58;21102;-30
2022/09/09 03:36:14;;;;;;;17.85;15.15;;;25.70;63.60;;;;;;4853500;54;21067;-28
2022/09/09 03:41:15;;;;;;;15.57;13.98;;;25.70;63.70;;;;;;4796067;58;21580;-29
2022/09/09 03:46:16;;;;;;;15.90;14.20;;;25.70;63.70;;;;;;4796249;54;21084;-29
2022/09/09 03:51:18;;;;;;;15.20;13.60;;;25.70;64.30;;;;;;4796532;54;21083;-32
2022/09/09 03:56:21;;;;;;;16.05;14.43;;;25.70;63.70;;;;;;4805739;54;21560;-25
2022/09/09 04:01:22;;;;;;;15.65;13.98;;;25.70;63.70;;;;;;4844871;54;21510;-25
2022/09/09 04:06:25;;;;;;;15.82;13.65;;;25.70;63.70;;;;;;4805550;54;20984;-26
2022/09/09 04:11:26;;;;;;;17.45;14.05;;;25.70;63.80;;;;;;4816298;54;21526;-32
2022/09/09 04:16:27;;;;;;;15.75;14.10;;;25.70;63.80;;;;;;4816884;54;20996;-28
2022/09/09 04:21:28;;;;;;;15.63;14.00;;;25.70;63.80;;;;;;4795343;58;21019;-26
2022/09/09 04:26:29;;;;;;;16.40;13.88;;;25.70;63.80;;;;;;4795883;54;21486;-25
2022/09/09 04:31:30;;;;;;;14.80;13.23;;;25.70;63.80;;;;;;4794684;55;21481;-24
2022/09/09 04:36:34;;;;;;;15.90;13.82;;;25.70;63.90;;;;;;4836025;54;21075;-25
2022/09/09 04:41:35;;;;;;;16.10;13.27;;;25.70;63.90;;;;;;4796377;58;21027;-28
2022/09/09 04:46:36;;;;;;;14.38;12.73;;;25.70;63.90;;;;;;4809409;54;22033;-29
2022/09/09 04:51:37;;;;;;;17.73;13.23;;;25.70;63.90;;;;;;4819870;54;22494;-26
2022/09/09 04:56:37;;;;;;;15.90;13.30;;;25.70;63.90;;;;;;4820982;54;21028;-27
2022/09/09 05:01:38;;;;;;;15.15;13.55;;;25.60;63.90;;;;;;4841071;54;21016;-45
2022/09/09 05:06:39;;;;;;;14.82;13.25;;;25.70;63.90;;;;;;4795270;58;20996;-26
2022/09/09 05:11:41;;;;;;;16.48;12.70;;;25.60;63.80;;;;;;4795121;55;21534;-25
2022/09/09 05:16:44;;;;;;;15.68;12.88;;;25.60;63.80;;;;;;4814903;54;21535;-29
2022/09/09 05:21:45;;;;;;;14.23;12.82;;;25.70;64.00;;;;;;4801098;54;21510;-26
2022/09/09 05:26:46;;;;;;;14.25;12.77;;;25.60;63.90;;;;;;4920338;54;21553;-28
2022/09/09 05:31:46;;;;;;;14.40;12.50;;;25.60;63.90;;;;;;4831560;54;21114;-27
2022/09/09 05:36:47;;;;;;;14.15;12.63;;;25.60;63.90;;;;;;4811934;54;21090;-30
2022/09/09 05:41:48;;;;;;;17.23;13.18;;;25.60;63.80;;;;;;4812553;54;22177;-30
2022/09/09 05:46:49;;;;;;;14.82;12.90;;;25.60;63.90;;;;;;4796637;54;21410;-26
2022/09/09 05:51:50;;;;;;;14.65;13.15;;;25.60;63.90;;;;;;4798073;54;21020;-30
2022/09/09 05:56:53;;;;;;;14.85;13.40;;;25.60;63.90;;;;;;4814456;54;22166;-30
2022/09/09 06:01:54;;;;;;;14.35;12.95;;;25.60;63.90;;;;;;4819367;54;21586;-29
2022/09/09 06:06:54;;;;;;;14.82;12.75;;;25.60;63.90;;;;;;4848338;54;21012;-27
2022/09/09 06:11:57;;;;;;;14.35;12.85;;;25.60;63.90;;;;;;4795552;58;21108;-29
2022/09/09 06:16:58;;;;;;;14.38;12.88;;;25.60;63.90;;;;;;4799583;54;21505;-34
2022/09/09 06:21:59;;;;;;;14.65;12.50;;;25.60;63.90;;;;;;4817278;54;21103;-28
2022/09/09 06:27:00;;;;;;;14.73;13.23;;;25.60;63.90;;;;;;4812831;54;21492;-27
2022/09/09 06:32:01;;;;;;;15.27;13.07;;;25.60;63.90;;;;;;4794781;58;21083;-31
2022/09/09 06:37:02;;;;;;;14.18;12.27;;;25.60;63.90;;;;;;4805370;54;21902;-27
2022/09/09 06:42:03;;;;;;;14.00;12.60;;;25.60;63.90;;;;;;4861695;54;21035;-28
2022/09/09 06:47:05;;;;;;;14.82;13.23;;;25.60;63.90;;;;;;4810498;54;21556;-35
2022/09/09 06:52:06;;;;;;;13.90;12.50;;;25.60;63.90;;;;;;4796793;54;21518;-34
2022/09/09 06:57:07;;;;;;;33.00;21.42;;;25.60;63.90;;;;;;4808532;54;21573;-35
2022/09/09 07:02:08;;;;;;;46.80;29.75;;;25.60;65.40;;;;;;4797992;54;21103;-37
2022/09/09 07:07:09;;;;;;;51.95;34.33;;;25.60;66.30;;;;;;4820855;54;21016;-33
2022/09/09 07:12:12;;;;;;;54.50;37.13;;;25.60;66.70;;;;;;4800485;54;21524;-33
2022/09/09 07:17:13;;;;;;;58.90;37.45;;;25.70;66.70;;;;;;4808543;54;21446;-32
2022/09/09 07:22:14;;;;;;;49.10;35.83;;;25.70;67.00;;;;;;4819334;54;20996;-32
2022/09/09 07:27:15;;;;;;;50.97;32.58;;;25.70;66.60;;;;;;4796011;58;21569;-26
2022/09/09 07:32:17;;;;;;;42.70;26.45;;;25.70;66.60;;;;;;4799689;54;21099;-29
2022/09/09 07:37:18;;;;;;;35.88;23.05;;;25.70;66.60;;;;;;4801476;54;21541;-32
2022/09/09 07:42:19;;;;;;;33.63;21.60;;;25.70;66.60;;;;;;4821498;54;21530;-27
2022/09/09 07:47:20;;;;;;;28.38;19.45;;;25.80;66.40;;;;;;4802242;54;21095;-34
2022/09/09 07:52:21;;;;;;;28.15;19.62;;;25.80;66.20;;;;;;4800890;54;21028;-33
2022/09/09 07:57:22;;;;;;;29.02;19.00;;;25.80;66.40;;;;;;4794680;58;21024;-34
2022/09/09 08:02:27;;;;;;;25.17;19.27;;;25.80;66.40;;;;;;4802592;54;21560;-30
2022/09/09 08:07:29;;;;;;;30.63;19.97;;;25.90;66.50;;;;;;4796518;54;21075;-30
2022/09/09 08:12:30;;;;;;;35.05;23.05;;;25.90;66.40;;;;;;4794524;58;21012;-28
2022/09/09 08:17:31;;;;;;;30.67;23.10;;;25.90;66.50;;;;;;4821504;54;21003;-29
2022/09/09 08:22:33;;;;;;;27.80;21.60;;;25.90;66.70;;;;;;4795402;55;21024;-30
2022/09/09 08:27:34;;;;;;;34.63;23.62;;;26.00;66.70;;;;;;4822791;54;21482;-28
2022/09/09 08:32:35;;;;;;;36.35;23.55;;;26.00;66.80;;;;;;4820537;54;21545;-34
2022/09/09 08:37:35;;;;;;;38.53;25.37;;;26.00;66.80;;;;;;4802434;54;20992;-34
2022/09/09 08:42:51;;;;;;;39.80;29.00;;;26.00;66.90;;;;;;4816328;54;21011;-35
2022/09/09 08:48:56;;;;;;;48.33;31.17;;;26.00;66.80;;;;;;4795604;55;21074;-34
2022/09/09 08:54:00;;;;;;;46.72;29.90;;;26.10;66.90;;;;;;4795436;54;21482;-31
2022/09/09 08:59:05;;;;;;;36.80;30.08;;;26.10;66.90;;;;;;4874248;54;21525;-32
2022/09/09 09:06:05;;;;;;;38.67;29.25;;;26.10;66.90;;;;;;4812228;54;21532;-34
2022/09/09 09:11:06;;;;;;;37.70;29.67;;;26.20;67.80;;;;;;4797570;54;21063;-34
2022/09/09 09:17:15;;;;;;;47.05;29.95;;;26.20;67.20;;;;;;4800141;54;20984;-34
2022/09/09 09:23:02;;;;;;;43.13;29.10;;;26.30;67.30;;;;;;4813107;54;21048;-34
2022/09/09 09:28:17;;;;;;;42.62;27.42;;;26.20;67.10;;;;;;4806714;54;21502;-26
2022/09/09 09:33:23;;;;;;;35.08;27.33;;;26.20;67.00;;;;;;4829607;54;21537;-28
2022/09/09 09:38:25;;;;;;;;;;;26.20;67.00;;;;;;4816516;54;21051;-35
2022/09/09 09:43:37;;;;;;;40.95;26.87;;;26.20;66.80;;;;;;4797382;54;20139;-36
2022/09/09 09:48:38;;;;;;;36.35;26.17;;;26.20;66.70;;;;;;4818185;54;21149;-35
2022/09/09 09:53:39;;;;;;;41.47;27.87;;;26.20;66.50;;;;;;4796100;54;21016;-33
2022/09/09 10:02:44;;;;;;;45.12;30.60;;;26.20;66.60;;;;;;4824426;54;21234;-30
2022/09/09 10:07:45;;;;;;;45.10;29.90;;;26.20;66.50;;;;;;4800482;54;21012;-33
2022/09/09 10:13:18;;;;;;;42.72;30.92;;;26.30;66.40;;;;;;4804943;54;22272;-30
2022/09/09 10:19:45;;;;;;;38.25;28.35;;;26.30;66.30;;;;;;4802118;54;21004;-30
2022/09/09 10:25:06;;;;;;;57.67;34.80;;;26.30;66.40;;;;;;4815574;54;20988;-33
2022/09/09 10:30:18;;;;;;;56.15;36.70;;;26.30;66.20;;;;;;4802638;54;21502;-27
2022/09/09 10:35:43;;;;;;;49.80;33.47;;;26.30;66.00;;;;;;4802761;54;21505;-27
2022/09/09 10:41:59;;;;;;;44.92;30.65;;;26.30;65.80;;;;;;4828903;54;21063;-26
2022/09/09 10:47:42;;;;;;;41.80;26.90;;;26.40;65.70;;;;;;4796793;54;21486;-33
2022/09/09 10:53:51;;;;;;;44.33;29.00;;;26.40;65.40;;;;;;4798669;54;21068;-33
2022/09/09 10:59:12;;;;;;;38.97;27.83;;;26.40;65.20;;;;;;4795645;54;21608;-30
2022/09/09 11:04:25;;;;;;;40.55;27.30;;;26.40;65.20;;;;;;4804067;54;21986;-25
2022/09/09 11:09:31;;;;;;;40.78;26.30;;;26.40;65.20;;;;;;4796948;54;22260;-26
2022/09/09 11:14:57;;;;;;;35.55;24.55;;;26.40;65.20;;;;;;4810727;54;21024;-26
2022/09/09 11:19:58;;;;;;;;;;;26.40;65.20;;;;;;4806608;54;21000;-30
2022/09/09 11:25:06;;;;;;;35.75;24.87;;;26.40;65.30;;;;;;4796530;54;20112;-35
2022/09/09 11:31:09;;;;;;;33.42;24.35;;;26.40;65.60;;;;;;4872187;54;21083;-35
2022/09/09 11:36:47;;;;;;;31.58;24.55;;;26.40;65.50;;;;;;4835408;54;21192;-29
2022/09/09 11:41:48;;;;;;;30.95;21.75;;;26.40;65.60;;;;;;4820383;54;21727;-33
2022/09/09 11:46:52;;;;;;;28.67;21.25;;;26.40;65.70;;;;;;4805428;54;21490;-31
2022/09/09 11:51:53;;;;;;;30.02;21.55;;;26.40;65.30;;;;;;4826911;54;21525;-33
2022/09/09 11:56:53;;;;;;;31.73;23.33;;;26.40;65.00;;;;;;4828038;54;21028;-32
2022/09/09 12:02:03;;;;;;;31.50;22.70;;;26.40;65.10;;;;;;4813169;54;21035;-33
2022/09/09 12:07:53;;;;;;;28.87;22.42;;;26.40;65.00;;;;;;4796085;58;21001;-30
2022/09/09 12:12:54;;;;;;;28.83;22.27;;;26.40;65.00;;;;;;4862035;54;21096;-30
2022/09/09 12:17:58;;;;;;;31.27;21.52;;;26.40;64.90;;;;;;4812455;54;21127;-33
2022/09/09 12:30:07;;;;;;;28.50;21.27;;;26.40;65.00;;;;;;4807596;54;21080;-26
2022/09/09 12:35:24;;;;;;;27.35;20.55;;;26.50;65.40;;;;;;4820901;54;21114;-30
2022/09/09 12:40:27;;;;;;;26.00;19.52;;;26.50;65.30;;;;;;4823751;54;22212;-24
2022/09/09 12:45:32;;;;;;;25.75;20.00;;;26.50;65.70;;;;;;4812670;54;21044;-33
2022/09/09 12:50:43;;;;;;;29.67;20.45;;;26.50;65.40;;;;;;4822449;54;21054;-27
2022/09/09 12:56:07;;;;;;;26.17;19.62;;;26.60;65.50;;;;;;4807074;54;21020;-28
2022/09/09 13:01:24;;;;;;;26.33;18.75;;;26.60;65.60;;;;;;4794499;54;21557;-26
2022/09/09 13:06:32;;;;;;;25.37;18.67;;;26.60;65.80;;;;;;4795632;54;21454;-26
2022/09/09 13:11:39;;;;;;;20.80;16.70;;;26.60;65.50;;;;;;4810334;54;21071;-27
2022/09/09 13:16:40;;;;;;;19.15;13.98;;;26.60;64.80;;;;;;4806784;54;21584;-28
2022/09/09 13:21:42;;;;;;;21.12;14.52;;;26.70;64.60;;;;;;4797662;54;21076;-33
2022/09/09 13:26:44;;;;;;;17.10;13.88;;;26.70;64.30;;;;;;4813348;54;21466;-30
2022/09/09 13:31:45;;;;;;;16.08;13.45;;;26.70;64.30;;;;;;4824125;54;21498;-26
2022/09/09 13:36:48;;;;;;;18.52;13.35;;;26.70;64.30;;;;;;4820420;54;21044;-34
2022/09/09 13:41:49;;;;;;;14.90;12.15;;;26.70;64.20;;;;;;4793814;58;21097;-30
2022/09/09 13:47:23;;;;;;;16.35;12.20;;;26.70;63.30;;;;;;4795875;54;21633;-27
2022/09/09 13:52:27;;;;;;;15.85;11.77;;;26.70;63.70;;;;;;4794696;58;21489;-28
2022/09/09 13:57:28;;;;;;;15.70;11.73;;;26.80;63.70;;;;;;4802145;54;21134;-31
2022/09/09 14:02:30;;;;;;;18.70;11.50;;;26.80;63.50;;;;;;4795876;55;21605;-33
2022/09/09 14:07:32;;;;;;;16.23;10.93;;;26.80;63.30;;;;;;4802889;54;21458;-31
2022/09/09 14:12:34;;;;;;;43.50;14.40;;;26.80;63.10;;;;;;4794210;55;21981;-26
2022/09/09 14:17:35;;;;;;;34.70;14.15;;;26.80;63.40;;;;;;4862179;54;21542;-27
2022/09/09 14:22:38;;;;;;;32.42;13.98;;;26.70;63.70;;;;;;4845424;54;21485;-26
2022/09/09 14:27:39;;;;;;;28.70;13.60;;;26.70;63.80;;;;;;4808599;54;21544;-31
2022/09/09 14:32:43;;;;;;;23.38;13.75;;;26.60;63.90;;;;;;4808225;54;21027;-31
2022/09/09 14:37:44;;;;;;;26.23;13.60;;;26.60;64.10;;;;;;4792400;58;21051;-31
2022/09/09 14:42:45;;;;;;;26.67;13.75;;;26.50;64.10;;;;;;4813216;54;21529;-30
2022/09/09 14:47:46;;;;;;;27.55;13.10;;;26.50;64.20;;;;;;4807978;54;21039;-29
2022/09/09 14:52:47;;;;;;;23.10;13.23;;;26.50;64.20;;;;;;4823159;54;21168;-28
2022/09/09 14:57:48;;;;;;;21.17;13.43;;;26.50;64.30;;;;;;4830176;54;21028;-32
2022/09/09 15:02:53;;;;;;;27.55;13.55;;;26.50;64.40;;;;;;4796292;56;21513;-37
2022/09/09 15:07:53;;;;;;;19.95;12.75;;;26.40;64.50;;;;;;4818215;54;20996;-36
2022/09/09 15:12:54;;;;;;;23.92;13.25;;;26.40;64.40;;;;;;4831953;54;21004;-28
2022/09/09 15:17:55;;;;;;;24.30;13.40;;;26.40;64.20;;;;;;4818641;54;20988;-25
2022/09/09 15:22:56;;;;;;;23.95;13.55;;;26.40;64.60;;;;;;4805768;54;21016;-34
2022/09/09 15:27:57;;;;;;;22.73;12.80;;;26.40;64.60;;;;;;4800923;54;21366;-33
2022/09/09 15:32:57;;;;;;;19.02;12.75;;;26.40;64.60;;;;;;4809816;54;21012;-36
2022/09/09 15:38:02;;;;;;;23.12;13.20;;;26.30;65.20;;;;;;4837875;54;22026;-33
2022/09/09 15:43:05;;;;;;;18.80;12.27;;;26.30;64.60;;;;;;4800969;54;21087;-32
2022/09/09 15:48:06;;;;;;;18.48;12.80;;;26.40;64.70;;;;;;4821314;54;21022;-26
2022/09/09 15:53:07;;;;;;;19.15;13.30;;;26.30;64.70;;;;;;4794602;58;21012;-27
2022/09/09 15:58:07;;;;;;;19.48;12.85;;;26.30;64.80;;;;;;4799051;54;21000;-27
2022/09/09 16:03:08;;;;;;;20.30;13.00;;;26.30;64.90;;;;;;4848506;54;21055;-31
2022/09/09 16:08:09;;;;;;;16.52;11.90;;;26.30;64.80;;;;;;4803196;54;21019;-29
2022/09/09 16:13:10;;;;;;;16.58;11.88;;;26.30;64.80;;;;;;4795275;54;21486;-36
2022/09/09 16:18:15;;;;;;;18.77;12.30;;;26.30;64.90;;;;;;4822396;54;21060;-34
2022/09/09 16:23:17;;;;;;;18.33;12.80;;;26.30;65.00;;;;;;4813141;54;21474;-28
2022/09/09 16:28:18;;;;;;;17.45;13.02;;;26.30;65.00;;;;;;4821146;54;21462;-29
2022/09/09 16:33:18;;;;;;;18.62;13.13;;;26.30;65.10;;;;;;4865598;54;21032;-36
2022/09/09 16:38:20;;;;;;;13.43;11.63;;;26.20;65.00;;;;;;4797477;54;20983;-27
2022/09/09 16:43:20;;;;;;;14.65;11.40;;;26.20;65.00;;;;;;4853332;54;21485;-36
2022/09/09 16:48:21;;;;;;;15.85;12.18;;;26.20;65.00;;;;;;4801108;54;21063;-31
2022/09/09 16:53:22;;;;;;;15.77;11.80;;;26.20;65.20;;;;;;4817413;54;21056;-37
2022/09/09 16:58:23;;;;;;;17.45;12.25;;;26.30;65.20;;;;;;4809025;54;21019;-27
2022/09/09 17:03:23;;;;;;;18.67;12.75;;;26.20;65.20;;;;;;4825049;54;21008;-36
2022/09/09 17:08:24;;;;;;;15.07;12.15;;;26.20;65.20;;;;;;4840779;54;21011;-25
2022/09/09 17:13:26;;;;;;;15.82;12.32;;;26.20;65.30;;;;;;4800174;54;21019;-25
2022/09/09 17:18:28;;;;;;;16.05;12.13;;;26.20;65.30;;;;;;4818938;54;21545;-26
2022/09/09 17:23:29;;;;;;;15.10;12.73;;;26.20;65.30;;;;;;4794719;58;21493;-26
2022/09/09 17:28:31;;;;;;;13.13;11.38;;;26.20;65.40;;;;;;4821393;54;21011;-27
2022/09/09 17:33:34;;;;;;;15.80;12.20;;;26.20;65.40;;;;;;4817085;54;21518;-26
2022/09/09 17:38:35;;;;;;;16.50;11.88;;;26.20;65.40;;;;;;4814140;54;21529;-27
2022/09/09 17:43:37;;;;;;;13.48;11.68;;;26.20;65.50;;;;;;4846170;54;21103;-29
2022/09/09 17:48:39;;;;;;;15.20;11.75;;;26.20;65.50;;;;;;4810865;54;21594;-38
2022/09/09 17:53:42;;;;;;;16.12;12.00;;;26.20;65.50;;;;;;4827695;54;21047;-29
2022/09/09 17:58:44;;;;;;;14.63;11.95;;;26.20;65.50;;;;;;4833053;54;21088;-34
2022/09/09 18:03:46;;;;;;;13.40;11.25;;;26.20;65.50;;;;;;4802153;54;21558;-37
2022/09/09 18:08:53;;;;;;;14.90;11.40;;;26.20;65.50;;;;;;4799067;54;21530;-32
2022/09/09 18:13:59;;;;;;;14.65;12.02;;;26.10;65.50;;;;;;4794726;58;21016;-26
2022/09/09 18:19:02;;;;;;;13.50;11.70;;;26.20;65.50;;;;;;4812612;54;21576;-32
2022/09/09 18:24:05;;;;;;;14.48;11.00;;;26.20;65.60;;;;;;4811251;54;21498;-33
2022/09/09 18:29:09;;;;;;;17.45;11.48;;;26.10;65.50;;;;;;4811492;54;21023;-35
2022/09/09 18:34:12;;;;;;;13.80;10.85;;;26.10;65.50;;;;;;4826478;54;21529;-27
2022/09/09 18:39:15;;;;;;;13.57;10.93;;;26.10;65.50;;;;;;4797789;54;21020;-32
2022/09/09 18:44:22;;;;;;;11.82;10.55;;;26.10;65.50;;;;;;4825874;54;21047;-27
2022/09/09 18:49:24;;;;;;;13.05;11.23;;;26.10;65.50;;;;;;4851134;54;21541;-28
2022/09/09 18:54:29;;;;;;;13.35;10.85;;;26.10;65.50;;;;;;4815754;54;21075;-29
2022/09/09 18:59:30;;;;;;;12.68;10.68;;;26.10;65.60;;;;;;4803243;54;21596;-33
2022/09/09 19:04:32;;;;;;;12.55;10.68;;;26.10;65.60;;;;;;4803622;54;21062;-35
2022/09/09 19:09:33;;;;;;;12.13;10.38;;;26.10;65.60;;;;;;4838118;54;20996;-36
2022/09/09 19:14:34;;;;;;;12.98;11.15;;;26.10;65.60;;;;;;4795623;58;21015;-29
2022/09/09 19:19:35;;;;;;;12.63;10.60;;;26.10;65.60;;;;;;4795293;58;20988;-29
2022/09/09 19:24:36;;;;;;;12.30;11.02;;;26.10;65.60;;;;;;4802643;54;21012;-29
2022/09/09 19:29:42;;;;;;;12.32;10.43;;;26.10;65.80;;;;;;4803428;54;21490;-36
2022/09/09 19:34:42;;;;;;;12.40;10.33;;;26.10;65.80;;;;;;4855436;54;21020;-28
2022/09/09 19:39:44;;;;;;;11.73;10.52;;;26.10;65.70;;;;;;4796004;54;21044;-36
2022/09/09 19:44:45;;;;;;;11.35;9.88;;;26.10;65.80;;;;;;4798892;54;21076;-27
2022/09/09 19:49:46;;;;;;;11.25;10.02;;;26.10;65.80;;;;;;4816951;54;20999;-27
2022/09/09 19:54:47;;;;;;;11.75;9.75;;;26.10;65.80;;;;;;4795845;58;21067;-28
2022/09/09 19:59:51;;;;;;;10.73;9.63;;;26.10;65.80;;;;;;4798538;54;21577;-25
2022/09/09 20:04:53;;;;;;;11.73;10.07;;;26.00;65.80;;;;;;4818203;54;21071;-35
2022/09/09 20:09:54;;;;;;;11.73;10.15;;;26.10;65.90;;;;;;4795947;58;21462;-25
2022/09/09 20:14:54;;;;;;;10.93;9.82;;;26.00;65.90;;;;;;4820371;54;21096;-36
2022/09/09 20:19:55;;;;;;;12.32;9.50;;;26.10;66.00;;;;;;4795300;58;20996;-35
2022/09/09 20:25:00;;;;;;;12.77;9.98;;;26.10;65.90;;;;;;4818472;54;21075;-33
2022/09/09 20:30:01;;;;;;;10.52;9.15;;;26.00;65.90;;;;;;4812006;54;21705;-27
2022/09/09 20:35:02;;;;;;;13.77;9.48;;;26.00;65.90;;;;;;4832531;54;21156;-39
2022/09/09 20:40:03;;;;;;;11.35;10.18;;;26.00;65.90;;;;;;4806246;54;21111;-29
2022/09/09 20:45:04;;;;;;;12.52;9.40;;;26.00;66.00;;;;;;4813678;54;21008;-29
2022/09/09 20:50:06;;;;;;;10.23;9.02;;;26.00;66.00;;;;;;4831102;54;21015;-34
2022/09/09 20:55:08;;;;;;;9.95;8.82;;;26.00;66.00;;;;;;4836657;54;21469;-32
2022/09/09 21:00:13;;;;;;;11.82;9.50;;;26.00;66.00;;;;;;4833678;54;21546;-31
2022/09/09 21:05:15;;;;;;;10.85;8.60;;;26.00;66.00;;;;;;4862002;54;21023;-36
2022/09/09 21:10:17;;;;;;;9.70;8.55;;;26.00;66.10;;;;;;4795361;58;21071;-27
2022/09/09 21:15:17;;;;;;;12.13;8.65;;;26.00;66.10;;;;;;4800614;54;21486;-26
2022/09/09 21:20:18;;;;;;;10.27;8.80;;;26.00;66.10;;;;;;4795612;58;21067;-26
2022/09/09 21:25:19;;;;;;;11.27;9.13;;;26.00;66.20;;;;;;4800895;54;21012;-31
2022/09/09 21:30:20;;;;;;;9.98;8.32;;;26.00;66.20;;;;;;4795631;58;21564;-36
2022/09/09 21:35:21;;;;;;;10.48;8.75;;;26.00;66.10;;;;;;4802944;54;21060;-26
2022/09/09 21:40:22;;;;;;;10.30;8.98;;;26.00;66.10;;;;;;4819678;54;20991;-35
2022/09/09 21:45:24;;;;;;;9.27;8.38;;;26.00;66.10;;;;;;4795289;58;21011;-26
2022/09/09 21:50:25;;;;;;;9.65;8.13;;;26.00;66.20;;;;;;4795220;58;21553;-30
2022/09/09 21:55:26;;;;;;;10.45;8.50;;;26.00;66.20;;;;;;4804397;54;20988;-26
2022/09/09 22:00:27;;;;;;;10.98;8.38;;;26.00;66.20;;;;;;4818059;54;21020;-31
2022/09/09 22:05:29;;;;;;;12.30;8.15;;;26.00;66.90;;;;;;4795185;58;21481;-29
2022/09/09 22:10:30;;;;;;;9.60;8.05;;;26.00;66.30;;;;;;4827379;54;21073;-33
2022/09/09 22:15:31;;;;;;;9.60;8.23;;;26.00;66.20;;;;;;4834553;54;21052;-32
2022/09/09 22:20:39;;;;;;;8.90;8.00;;;26.00;66.30;;;;;;4794842;58;21083;-35
2022/09/09 22:25:40;;;;;;;8.95;7.82;;;26.00;66.30;;;;;;4834440;54;21540;-33
2022/09/09 22:30:42;;;;;;;8.95;7.70;;;26.00;66.20;;;;;;4795071;58;21040;-38
2022/09/09 22:35:43;;;;;;;8.00;7.20;;;26.00;66.20;;;;;;4794199;58;21542;-37
2022/09/09 22:40:44;;;;;;;9.30;8.30;;;26.00;66.30;;;;;;4815367;54;21016;-35
2022/09/09 22:45:45;;;;;;;9.68;7.90;;;25.90;66.20;;;;;;4796028;54;21115;-26
2022/09/09 22:50:46;;;;;;;9.07;8.10;;;26.00;66.30;;;;;;4838307;54;21003;-34
2022/09/09 22:55:58;;;;;;;8.80;7.28;;;26.00;66.30;;;;;;4829998;54;21478;-33
2022/09/09 23:01:06;;;;;;;8.15;7.35;;;26.00;66.30;;;;;;4801107;54;21056;-26
2022/09/09 23:06:10;;;;;;;8.95;7.62;;;25.90;66.20;;;;;;4839439;54;22187;-31
2022/09/09 23:11:12;;;;;;;8.05;7.30;;;26.00;66.20;;;;;;4815070;54;22316;-35
2022/09/09 23:16:18;;;;;;;7.78;7.07;;;25.90;66.20;;;;;;4826811;54;21494;-40
2022/09/09 23:21:21;;;;;;;8.35;7.43;;;26.00;66.40;;;;;;4819899;54;21513;-37
2022/09/09 23:26:24;;;;;;;8.35;7.45;;;26.00;66.30;;;;;;4808006;54;21012;-37
2022/09/09 23:31:27;;;;;;;8.40;7.57;;;26.00;66.30;;;;;;4848492;54;21015;-26
2022/09/09 23:36:29;;;;;;;8.48;7.57;;;25.90;66.20;;;;;;4835256;54;21579;-33
2022/09/09 23:41:32;;;;;;;9.15;7.68;;;26.00;66.20;;;;;;4828206;54;20991;-27
2022/09/09 23:46:34;;;;;;;8.48;7.43;;;26.00;66.20;;;;;;4856747;54;21533;-29
2022/09/09 23:51:36;;;;;;;8.30;7.37;;;25.90;66.20;;;;;;4836878;54;20992;-27
2022/09/09 23:56:41;;;;;;;8.05;7.25;;;25.90;66.20;;;;;;4835133;54;21049;-28
